Terminal Aerodrome Forecast
Issued by NWS Charleston, WV

Current Version | Previous Version | Graphics & Text | Print | Product List | Glossary On
Versions: 1 2 3 4 5 6 7 8 9 10 11 12 13 14 15 16 17 18 19 20 21
000
FTUS41 KRLX 301500 AAA
TAFPKB
TAF AMD
KPKB 301502Z 3015/0112 34010KT P6SM BKN060 BKN110
     FM301630 32007KT 4SM -SHRA SCT025 BKN050 OVC110
     FM302200 31009KT 5SM -SHRA BKN040
     FM010100 31006KT 6SM -SHRA BR OVC030
     FM010400 33004KT 6SM BR OVC025
     FM010600 32006KT 5SM BR OVC016=

USA.gov is the U.S. government's official web portal to all federal, state and local government web resources and services.